GLO1047 SBRJ-SBSP
Flight info
| Callsign | GLO1047 |
|---|---|
| Flight time | 0h 49m |
| Altitude | 28000 |
| Route | NAXOP UZ45 IBDAL |
| Aircraft | B738/M-SDE2E3FGHIRWXY/LB1 |
Departure
| Time | 2026-05-08 01:54 |
|---|---|
| Airport | Santos Dumont Airport (SBRJ) |
Arrival
| Time | 2026-05-08 02:43 |
|---|---|
| Airport | Congonhas–Deputado Freitas Nobre Airport (SBSP) |
| Time | Latitude | Longitude | Altitude | Speed | Heading |
|---|---|---|---|---|---|
| 2026-05-08 01:16 | -22.91135 | -43.16584 | 29 ft | 0 kts | 268° |
| 2026-05-08 01:42 | -22.91135 | -43.16564 | 29 ft | 3 kts | 275° |
| 2026-05-08 01:42 | -22.91138 | -43.16542 | 29 ft | 3 kts | 290° |
| 2026-05-08 01:43 | -22.91147 | -43.16523 | 29 ft | 3 kts | 322° |
| 2026-05-08 01:43 | -22.91160 | -43.16516 | 29 ft | 0 kts | 356° |
| 2026-05-08 01:47 | -22.91141 | -43.16518 | 29 ft | 4 kts | 355° |
| 2026-05-08 01:48 | -22.91120 | -43.16522 | 29 ft | 2 kts | 348° |
| 2026-05-08 01:48 | -22.91074 | -43.16533 | 29 ft | 12 kts | 351° |
| 2026-05-08 01:48 | -22.90974 | -43.16541 | 29 ft | 15 kts | 357° |
| 2026-05-08 01:48 | -22.90870 | -43.16546 | 29 ft | 14 kts | 357° |
| 2026-05-08 01:49 | -22.90777 | -43.16544 | 29 ft | 13 kts | 360° |
| 2026-05-08 01:49 | -22.90694 | -43.16548 | 29 ft | 12 kts | 357° |
| 2026-05-08 01:49 | -22.90601 | -43.16553 | 29 ft | 16 kts | 357° |
| 2026-05-08 01:49 | -22.90510 | -43.16541 | 29 ft | 10 kts | 52° |
| 2026-05-08 01:50 | -22.90499 | -43.16490 | 29 ft | 0 kts | 86° |
| 2026-05-08 01:51 | -22.90498 | -43.16478 | 29 ft | 5 kts | 86° |
| 2026-05-08 01:51 | -22.90494 | -43.16408 | 29 ft | 11 kts | 85° |
| 2026-05-08 01:51 | -22.90468 | -43.16335 | 28 ft | 9 kts | 63° |
| 2026-05-08 01:52 | -22.90466 | -43.16324 | 28 ft | 1 kts | 93° |
| 2026-05-08 01:52 | -22.90471 | -43.16323 | 28 ft | 1 kts | 155° |
| 2026-05-08 01:52 | -22.90473 | -43.16323 | 28 ft | 0 kts | 167° |
| 2026-05-08 01:53 | -22.90498 | -43.16318 | 28 ft | 27 kts | 172° |
| 2026-05-08 01:53 | -22.91007 | -43.16284 | 27 ft | 116 kts | 176° |
| 2026-05-08 01:53 | -22.92017 | -43.16219 | 336 ft | 156 kts | 176° |
| 2026-05-08 01:54 | -22.93058 | -43.15849 | 1182 ft | 166 kts | 147° |
| 2026-05-08 01:54 | -22.94066 | -43.15144 | 2057 ft | 176 kts | 136° |
| 2026-05-08 01:54 | -22.94517 | -43.13971 | 3043 ft | 172 kts | 90° |
| 2026-05-08 01:54 | -22.94641 | -43.12723 | 3912 ft | 167 kts | 121° |
| 2026-05-08 01:55 | -22.95575 | -43.11891 | 4457 ft | 190 kts | 147° |
| 2026-05-08 01:55 | -22.96807 | -43.11099 | 4643 ft | 220 kts | 143° |
| 2026-05-08 01:55 | -22.98131 | -43.10125 | 4798 ft | 247 kts | 145° |
| 2026-05-08 01:55 | -22.99875 | -43.09598 | 4939 ft | 280 kts | 183° |
| 2026-05-08 01:56 | -23.01729 | -43.10337 | 5501 ft | 291 kts | 219° |
| 2026-05-08 01:56 | -23.03251 | -43.11789 | 6366 ft | 292 kts | 224° |
| 2026-05-08 01:56 | -23.04778 | -43.13264 | 7209 ft | 296 kts | 223° |
| 2026-05-08 01:56 | -23.06350 | -43.14726 | 8017 ft | 299 kts | 222° |
| 2026-05-08 01:57 | -23.07955 | -43.16178 | 8845 ft | 301 kts | 221° |
| 2026-05-08 01:57 | -23.09598 | -43.17620 | 9621 ft | 305 kts | 220° |
| 2026-05-08 01:57 | -23.11267 | -43.19070 | 10324 ft | 312 kts | 220° |
| 2026-05-08 01:57 | -23.13020 | -43.20594 | 10561 ft | 334 kts | 220° |
| 2026-05-08 01:58 | -23.14901 | -43.22229 | 10748 ft | 356 kts | 220° |
| 2026-05-08 01:58 | -23.16889 | -43.23960 | 10906 ft | 377 kts | 220° |
| 2026-05-08 01:58 | -23.18990 | -43.25791 | 11057 ft | 395 kts | 220° |
| 2026-05-08 01:58 | -23.21182 | -43.27701 | 11220 ft | 411 kts | 220° |
| 2026-05-08 01:59 | -23.23435 | -43.29665 | 11578 ft | 419 kts | 220° |
| 2026-05-08 01:59 | -23.25717 | -43.31656 | 12070 ft | 422 kts | 220° |
| 2026-05-08 01:59 | -23.28015 | -43.33662 | 12601 ft | 425 kts | 220° |
| 2026-05-08 01:59 | -23.30329 | -43.35683 | 13153 ft | 426 kts | 220° |
| 2026-05-08 02:00 | -23.32549 | -43.37809 | 13663 ft | 427 kts | 231° |
| 2026-05-08 02:00 | -23.34078 | -43.40546 | 14153 ft | 425 kts | 250° |
| 2026-05-08 02:00 | -23.34906 | -43.43580 | 14636 ft | 425 kts | 258° |
| 2026-05-08 02:00 | -23.35612 | -43.46713 | 15065 ft | 428 kts | 258° |
| 2026-05-08 02:01 | -23.36312 | -43.49884 | 15462 ft | 432 kts | 258° |
| 2026-05-08 02:01 | -23.37024 | -43.53070 | 15875 ft | 435 kts | 257° |
| 2026-05-08 02:01 | -23.37754 | -43.56280 | 16291 ft | 437 kts | 257° |
| 2026-05-08 02:01 | -23.38496 | -43.59499 | 16695 ft | 440 kts | 257° |
| 2026-05-08 02:02 | -23.39249 | -43.62736 | 17073 ft | 443 kts | 257° |
| 2026-05-08 02:02 | -23.40009 | -43.65991 | 17457 ft | 445 kts | 257° |
| 2026-05-08 02:02 | -23.40776 | -43.69273 | 17815 ft | 448 kts | 256° |
| 2026-05-08 02:02 | -23.41544 | -43.72564 | 18170 ft | 450 kts | 256° |
| 2026-05-08 02:03 | -23.42317 | -43.75882 | 18520 ft | 452 kts | 256° |
| 2026-05-08 02:03 | -23.43081 | -43.79165 | 18914 ft | 453 kts | 256° |
| 2026-05-08 02:03 | -23.43855 | -43.82493 | 19306 ft | 453 kts | 256° |
| 2026-05-08 02:03 | -23.44627 | -43.85823 | 19666 ft | 454 kts | 256° |
| 2026-05-08 02:04 | -23.45400 | -43.89154 | 19997 ft | 455 kts | 256° |
| 2026-05-08 02:04 | -23.46177 | -43.92510 | 20324 ft | 457 kts | 256° |
| 2026-05-08 02:04 | -23.46954 | -43.95876 | 20644 ft | 458 kts | 256° |
| 2026-05-08 02:04 | -23.47728 | -43.99241 | 20952 ft | 458 kts | 256° |
| 2026-05-08 02:05 | -23.48502 | -44.02613 | 21257 ft | 459 kts | 256° |
| 2026-05-08 02:05 | -23.49279 | -44.05998 | 21561 ft | 460 kts | 256° |
| 2026-05-08 02:05 | -23.50054 | -44.09380 | 21833 ft | 461 kts | 256° |
| 2026-05-08 02:05 | -23.50830 | -44.12766 | 22122 ft | 461 kts | 256° |
| 2026-05-08 02:06 | -23.51598 | -44.16122 | 22367 ft | 462 kts | 256° |
| 2026-05-08 02:06 | -23.52379 | -44.19530 | 22600 ft | 463 kts | 256° |
| 2026-05-08 02:06 | -23.53160 | -44.22933 | 22856 ft | 464 kts | 256° |
| 2026-05-08 02:06 | -23.53939 | -44.26327 | 23329 ft | 458 kts | 256° |
| 2026-05-08 02:07 | -23.54704 | -44.29661 | 24101 ft | 446 kts | 256° |
| 2026-05-08 02:07 | -23.55446 | -44.32901 | 24893 ft | 435 kts | 256° |
| 2026-05-08 02:07 | -23.56170 | -44.36065 | 25595 ft | 428 kts | 256° |
| 2026-05-08 02:07 | -23.56888 | -44.39209 | 25949 ft | 428 kts | 256° |
| 2026-05-08 02:08 | -23.57365 | -44.41300 | 26023 ft | 431 kts | 256° |
| 2026-05-08 02:08 | -23.58093 | -44.44494 | 26021 ft | 437 kts | 256° |
| 2026-05-08 02:08 | -23.58830 | -44.47733 | 26030 ft | 442 kts | 256° |
| 2026-05-08 02:08 | -23.59573 | -44.51002 | 26030 ft | 447 kts | 256° |
| 2026-05-08 02:09 | -23.60325 | -44.54311 | 26028 ft | 451 kts | 256° |
| 2026-05-08 02:09 | -23.61081 | -44.57642 | 26026 ft | 454 kts | 256° |
| 2026-05-08 02:09 | -23.61842 | -44.60997 | 26028 ft | 457 kts | 256° |
| 2026-05-08 02:09 | -23.62609 | -44.64383 | 26024 ft | 460 kts | 256° |
| 2026-05-08 02:10 | -23.63378 | -44.67782 | 26025 ft | 463 kts | 256° |
| 2026-05-08 02:10 | -23.64142 | -44.71161 | 26018 ft | 465 kts | 256° |
| 2026-05-08 02:10 | -23.64918 | -44.74593 | 26018 ft | 467 kts | 256° |
| 2026-05-08 02:10 | -23.65694 | -44.78036 | 26027 ft | 468 kts | 256° |
| 2026-05-08 02:11 | -23.66472 | -44.81491 | 26029 ft | 468 kts | 256° |
| 2026-05-08 02:11 | -23.67249 | -44.84943 | 26029 ft | 469 kts | 256° |
| 2026-05-08 02:11 | -23.68026 | -44.88399 | 26028 ft | 469 kts | 256° |
| 2026-05-08 02:11 | -23.68803 | -44.91858 | 26026 ft | 470 kts | 256° |
| 2026-05-08 02:12 | -23.69581 | -44.95326 | 26031 ft | 470 kts | 256° |
| 2026-05-08 02:12 | -23.70356 | -44.98787 | 26036 ft | 469 kts | 256° |
| 2026-05-08 02:12 | -23.71131 | -45.02254 | 26035 ft | 469 kts | 256° |
| 2026-05-08 02:12 | -23.71896 | -45.05674 | 26036 ft | 469 kts | 256° |
| 2026-05-08 02:13 | -23.72669 | -45.09135 | 25626 ft | 473 kts | 256° |
| 2026-05-08 02:13 | -23.73447 | -45.12624 | 24996 ft | 466 kts | 256° |
| 2026-05-08 02:13 | -23.74210 | -45.16047 | 24258 ft | 461 kts | 256° |
| 2026-05-08 02:13 | -23.74961 | -45.19419 | 23554 ft | 455 kts | 257° |
| 2026-05-08 02:14 | -23.75707 | -45.22774 | 22844 ft | 450 kts | 257° |
| 2026-05-08 02:14 | -23.76443 | -45.26079 | 22140 ft | 446 kts | 257° |
| 2026-05-08 02:14 | -23.77171 | -45.29350 | 21444 ft | 441 kts | 257° |
| 2026-05-08 02:14 | -23.77892 | -45.32593 | 20746 ft | 438 kts | 257° |
| 2026-05-08 02:15 | -23.78608 | -45.35812 | 20066 ft | 435 kts | 257° |
| 2026-05-08 02:15 | -23.79318 | -45.39008 | 19385 ft | 431 kts | 257° |
| 2026-05-08 02:15 | -23.79931 | -45.42195 | 18844 ft | 425 kts | 264° |
| 2026-05-08 02:15 | -23.80175 | -45.45337 | 18501 ft | 418 kts | 268° |
| 2026-05-08 02:16 | -23.80303 | -45.48561 | 18149 ft | 432 kts | 269° |
| 2026-05-08 02:16 | -23.80408 | -45.51862 | 17751 ft | 438 kts | 270° |
| 2026-05-08 02:16 | -23.80530 | -45.55191 | 17361 ft | 437 kts | 269° |
| 2026-05-08 02:16 | -23.80674 | -45.58482 | 16981 ft | 432 kts | 269° |
| 2026-05-08 02:17 | -23.80822 | -45.61755 | 16596 ft | 429 kts | 269° |
| 2026-05-08 02:17 | -23.80975 | -45.65010 | 16229 ft | 427 kts | 269° |
| 2026-05-08 02:17 | -23.81133 | -45.68235 | 15857 ft | 425 kts | 269° |
| 2026-05-08 02:17 | -23.81294 | -45.71456 | 15485 ft | 423 kts | 269° |
| 2026-05-08 02:18 | -23.81454 | -45.74652 | 15114 ft | 421 kts | 269° |
| 2026-05-08 02:18 | -23.81615 | -45.77842 | 14741 ft | 419 kts | 269° |
| 2026-05-08 02:18 | -23.81773 | -45.81010 | 14376 ft | 417 kts | 269° |
| 2026-05-08 02:18 | -23.81931 | -45.84163 | 14010 ft | 415 kts | 269° |
| 2026-05-08 02:19 | -23.82088 | -45.87313 | 13645 ft | 412 kts | 269° |
| 2026-05-08 02:19 | -23.82242 | -45.90423 | 13284 ft | 409 kts | 269° |
| 2026-05-08 02:19 | -23.82392 | -45.93483 | 12932 ft | 407 kts | 269° |
| 2026-05-08 02:19 | -23.82542 | -45.96540 | 12573 ft | 397 kts | 270° |
| 2026-05-08 02:20 | -23.82688 | -45.99512 | 12225 ft | 387 kts | 270° |
| 2026-05-08 02:20 | -23.82830 | -46.02414 | 11889 ft | 377 kts | 270° |
| 2026-05-08 02:20 | -23.82967 | -46.05242 | 11561 ft | 368 kts | 270° |
| 2026-05-08 02:20 | -23.83099 | -46.08006 | 11241 ft | 360 kts | 270° |
| 2026-05-08 02:21 | -23.83228 | -46.10714 | 10929 ft | 353 kts | 270° |
| 2026-05-08 02:21 | -23.83353 | -46.13354 | 10623 ft | 346 kts | 270° |
| 2026-05-08 02:21 | -23.83475 | -46.15925 | 10329 ft | 339 kts | 270° |
| 2026-05-08 02:21 | -23.83596 | -46.18475 | 10037 ft | 334 kts | 269° |
| 2026-05-08 02:22 | -23.83717 | -46.20956 | 10018 ft | 319 kts | 269° |
| 2026-05-08 02:22 | -23.83871 | -46.23328 | 10029 ft | 307 kts | 268° |
| 2026-05-08 02:22 | -23.84037 | -46.25623 | 9963 ft | 297 kts | 268° |
| 2026-05-08 02:22 | -23.84198 | -46.27833 | 9858 ft | 287 kts | 268° |
| 2026-05-08 02:23 | -23.84352 | -46.29981 | 9666 ft | 280 kts | 268° |
| 2026-05-08 02:23 | -23.84500 | -46.32071 | 9390 ft | 280 kts | 268° |
| 2026-05-08 02:23 | -23.84649 | -46.34191 | 9029 ft | 279 kts | 268° |
| 2026-05-08 02:23 | -23.84796 | -46.36289 | 8633 ft | 274 kts | 268° |
| 2026-05-08 02:24 | -23.84943 | -46.38366 | 8185 ft | 274 kts | 268° |
| 2026-05-08 02:24 | -23.85087 | -46.40446 | 7758 ft | 273 kts | 268° |
| 2026-05-08 02:24 | -23.85229 | -46.42511 | 7379 ft | 271 kts | 269° |
| 2026-05-08 02:24 | -23.85292 | -46.44567 | 7044 ft | 268 kts | 282° |
| 2026-05-08 02:25 | -23.84652 | -46.46421 | 6762 ft | 257 kts | 307° |
| 2026-05-08 02:25 | -23.83599 | -46.47960 | 6568 ft | 251 kts | 309° |
| 2026-05-08 02:25 | -23.82565 | -46.49463 | 6332 ft | 244 kts | 309° |
| 2026-05-08 02:25 | -23.81573 | -46.50909 | 6106 ft | 238 kts | 309° |
| 2026-05-08 02:26 | -23.80584 | -46.52355 | 5883 ft | 236 kts | 309° |
| 2026-05-08 02:26 | -23.79599 | -46.53773 | 5648 ft | 232 kts | 311° |
| 2026-05-08 02:26 | -23.78376 | -46.54888 | 5439 ft | 229 kts | 326° |
| 2026-05-08 02:26 | -23.77024 | -46.55791 | 5235 ft | 226 kts | 327° |
| 2026-05-08 02:27 | -23.75692 | -46.56672 | 5031 ft | 222 kts | 326° |
| 2026-05-08 02:27 | -23.74377 | -46.57545 | 4848 ft | 222 kts | 327° |
| 2026-05-08 02:27 | -23.73051 | -46.58427 | 4653 ft | 223 kts | 329° |
| 2026-05-08 02:27 | -23.71763 | -46.59319 | 4487 ft | 216 kts | 329° |
| 2026-05-08 02:28 | -23.70520 | -46.60187 | 4288 ft | 208 kts | 329° |
| 2026-05-08 02:28 | -23.69317 | -46.61023 | 4024 ft | 202 kts | 329° |
| 2026-05-08 02:28 | -23.68149 | -46.61835 | 3751 ft | 193 kts | 329° |
| 2026-05-08 02:28 | -23.67054 | -46.62598 | 3515 ft | 182 kts | 328° |
| 2026-05-08 02:29 | -23.66016 | -46.63319 | 3297 ft | 170 kts | 328° |
| 2026-05-08 02:29 | -23.65044 | -46.63995 | 3063 ft | 160 kts | 328° |
| 2026-05-08 02:29 | -23.64105 | -46.64651 | 2916 ft | 162 kts | 328° |
| 2026-05-08 02:29 | -23.63159 | -46.65309 | 2649 ft | 155 kts | 328° |
| 2026-05-08 02:30 | -23.62253 | -46.65931 | 2728 ft | 163 kts | 328° |
| 2026-05-08 02:30 | -23.61331 | -46.66544 | 3503 ft | 155 kts | 330° |
| 2026-05-08 02:30 | -23.60359 | -46.67195 | 3908 ft | 174 kts | 322° |
| 2026-05-08 02:30 | -23.59638 | -46.68403 | 3876 ft | 216 kts | 279° |
| 2026-05-08 02:31 | -23.59850 | -46.69952 | 3956 ft | 211 kts | 236° |
| 2026-05-08 02:31 | -23.60952 | -46.70885 | 3993 ft | 202 kts | 190° |
| 2026-05-08 02:31 | -23.62293 | -46.70658 | 4481 ft | 199 kts | 155° |
| 2026-05-08 02:31 | -23.63621 | -46.70150 | 5178 ft | 203 kts | 162° |
| 2026-05-08 02:32 | -23.64981 | -46.69687 | 5732 ft | 207 kts | 158° |
| 2026-05-08 02:32 | -23.66380 | -46.69180 | 5979 ft | 220 kts | 158° |
| 2026-05-08 02:32 | -23.67870 | -46.68653 | 5990 ft | 228 kts | 160° |
| 2026-05-08 02:32 | -23.69395 | -46.68150 | 5995 ft | 229 kts | 162° |
| 2026-05-08 02:33 | -23.70944 | -46.67735 | 5982 ft | 230 kts | 181° |
| 2026-05-08 02:33 | -23.72412 | -46.68269 | 6004 ft | 221 kts | 224° |
| 2026-05-08 02:33 | -23.73305 | -46.69552 | 6015 ft | 214 kts | 246° |
| 2026-05-08 02:33 | -23.73995 | -46.70998 | 6004 ft | 215 kts | 248° |
| 2026-05-08 02:34 | -23.74562 | -46.72501 | 6002 ft | 214 kts | 257° |
| 2026-05-08 02:34 | -23.74779 | -46.74072 | 5985 ft | 206 kts | 285° |
| 2026-05-08 02:34 | -23.74138 | -46.75407 | 6006 ft | 202 kts | 318° |
| 2026-05-08 02:34 | -23.72932 | -46.76234 | 5991 ft | 208 kts | 340° |
| 2026-05-08 02:35 | -23.71569 | -46.76774 | 6007 ft | 209 kts | 340° |
| 2026-05-08 02:35 | -23.70212 | -46.77316 | 5987 ft | 206 kts | 340° |
| 2026-05-08 02:35 | -23.68874 | -46.77849 | 5993 ft | 203 kts | 340° |
| 2026-05-08 02:35 | -23.67544 | -46.78382 | 5994 ft | 203 kts | 340° |
| 2026-05-08 02:36 | -23.66221 | -46.78909 | 5996 ft | 202 kts | 340° |
| 2026-05-08 02:36 | -23.64902 | -46.79437 | 6003 ft | 203 kts | 340° |
| 2026-05-08 02:36 | -23.63588 | -46.79962 | 5991 ft | 196 kts | 340° |
| 2026-05-08 02:36 | -23.62365 | -46.80451 | 5972 ft | 178 kts | 340° |
| 2026-05-08 02:37 | -23.61258 | -46.80895 | 5962 ft | 163 kts | 340° |
| 2026-05-08 02:37 | -23.60221 | -46.81311 | 6003 ft | 161 kts | 340° |
| 2026-05-08 02:37 | -23.59164 | -46.81733 | 5970 ft | 162 kts | 340° |
| 2026-05-08 02:37 | -23.58114 | -46.82154 | 5903 ft | 159 kts | 340° |
| 2026-05-08 02:38 | -23.57037 | -46.82417 | 5807 ft | 163 kts | 6° |
| 2026-05-08 02:38 | -23.56025 | -46.81841 | 5824 ft | 171 kts | 43° |
| 2026-05-08 02:38 | -23.55321 | -46.80753 | 5791 ft | 180 kts | 51° |
| 2026-05-08 02:38 | -23.54633 | -46.79588 | 5703 ft | 183 kts | 53° |
| 2026-05-08 02:39 | -23.53947 | -46.78416 | 5553 ft | 185 kts | 53° |
| 2026-05-08 02:39 | -23.53243 | -46.77215 | 5365 ft | 189 kts | 54° |
| 2026-05-08 02:39 | -23.52529 | -46.76002 | 5185 ft | 191 kts | 56° |
| 2026-05-08 02:39 | -23.52054 | -46.74680 | 4966 ft | 186 kts | 88° |
| 2026-05-08 02:40 | -23.52264 | -46.73363 | 4807 ft | 177 kts | 118° |
| 2026-05-08 02:40 | -23.53011 | -46.72340 | 4593 ft | 171 kts | 146° |
| 2026-05-08 02:40 | -23.53994 | -46.71651 | 4385 ft | 166 kts | 148° |
| 2026-05-08 02:40 | -23.54973 | -46.70981 | 4172 ft | 166 kts | 148° |
| 2026-05-08 02:41 | -23.55959 | -46.70313 | 4029 ft | 168 kts | 147° |
| 2026-05-08 02:41 | -23.56932 | -46.69638 | 3829 ft | 164 kts | 145° |
| 2026-05-08 02:41 | -23.57878 | -46.68977 | 3611 ft | 158 kts | 145° |
| 2026-05-08 02:41 | -23.58790 | -46.68343 | 3403 ft | 154 kts | 146° |
| 2026-05-08 02:42 | -23.59691 | -46.67716 | 3211 ft | 154 kts | 146° |
| 2026-05-08 02:42 | -23.60585 | -46.67094 | 3019 ft | 155 kts | 147° |
| 2026-05-08 02:42 | -23.61493 | -46.66460 | 2800 ft | 154 kts | 147° |
| 2026-05-08 02:42 | -23.62383 | -46.65843 | 2611 ft | 144 kts | 147° |
| 2026-05-08 02:43 | -23.63055 | -46.65379 | 2637 ft | 68 kts | 147° |
| 2026-05-08 02:43 | -23.63295 | -46.65214 | 2642 ft | 17 kts | 154° |
| 2026-05-08 02:43 | -23.63403 | -46.65226 | 2645 ft | 15 kts | 230° |
| 2026-05-08 02:43 | -23.63371 | -46.65302 | 2646 ft | 12 kts | 327° |
| 2026-05-08 02:44 | -23.63305 | -46.65349 | 2645 ft | 11 kts | 327° |
| 2026-05-08 02:44 | -23.63245 | -46.65391 | 2640 ft | 10 kts | 327° |
| 2026-05-08 02:44 | -23.63184 | -46.65433 | 2638 ft | 10 kts | 328° |
| 2026-05-08 02:44 | -23.63121 | -46.65477 | 2636 ft | 11 kts | 327° |
| 2026-05-08 02:45 | -23.63041 | -46.65516 | 2631 ft | 14 kts | 355° |
| 2026-05-08 02:45 | -23.62947 | -46.65560 | 2626 ft | 16 kts | 328° |
| 2026-05-08 02:45 | -23.62899 | -46.65644 | 2625 ft | 14 kts | 243° |
| 2026-05-08 02:45 | -23.62942 | -46.65718 | 2625 ft | 8 kts | 237° |
| 2026-05-08 02:46 | -23.62962 | -46.65752 | 2625 ft | 1 kts | 237° |
| 2026-05-08 02:46 | -23.62964 | -46.65755 | 2625 ft | 2 kts | 237° |
| 2026-05-08 02:46 | -23.62982 | -46.65787 | 2625 ft | 7 kts | 238° |
| 2026-05-08 02:46 | -23.62977 | -46.65831 | 2625 ft | 6 kts | 327° |
| 2026-05-08 02:47 | -23.62965 | -46.65840 | 2625 ft | 0 kts | 328° |
| 2026-05-08 02:47 | -23.62962 | -46.65842 | 2625 ft | 0 kts | 328° |